sensor_id;sensor_type;location;lat;lon;timestamp;P1;durP1;ratioP1;P2;durP2;ratioP2
79585;SDS011;69054;50.866;4.636;2023-08-08T00:01:57;10.95;;;5.70;;
79585;SDS011;69054;50.866;4.636;2023-08-08T00:04:22;9.00;;;4.97;;
79585;SDS011;69054;50.866;4.636;2023-08-08T00:06:47;12.38;;;4.45;;
79585;SDS011;69054;50.866;4.636;2023-08-08T00:09:13;6.32;;;4.38;;
79585;SDS011;69054;50.866;4.636;2023-08-08T00:11:38;8.38;;;5.13;;
79585;SDS011;69054;50.866;4.636;2023-08-08T00:14:04;7.97;;;4.57;;
79585;SDS011;69054;50.866;4.636;2023-08-08T00:16:29;7.43;;;4.88;;
79585;SDS011;69054;50.866;4.636;2023-08-08T00:18:55;8.05;;;4.68;;
79585;SDS011;69054;50.866;4.636;2023-08-08T00:21:20;10.73;;;4.38;;
79585;SDS011;69054;50.866;4.636;2023-08-08T00:23:46;11.60;;;5.72;;
79585;SDS011;69054;50.866;4.636;2023-08-08T00:26:11;9.77;;;4.35;;
79585;SDS011;69054;50.866;4.636;2023-08-08T00:28:37;8.48;;;4.15;;
79585;SDS011;69054;50.866;4.636;2023-08-08T00:31:02;8.63;;;4.30;;
79585;SDS011;69054;50.866;4.636;2023-08-08T00:33:28;8.18;;;4.80;;
79585;SDS011;69054;50.866;4.636;2023-08-08T00:35:53;8.35;;;4.22;;
79585;SDS011;69054;50.866;4.636;2023-08-08T00:38:19;9.80;;;4.28;;
79585;SDS011;69054;50.866;4.636;2023-08-08T00:40:44;5.68;;;3.97;;
79585;SDS011;69054;50.866;4.636;2023-08-08T00:43:10;9.13;;;4.43;;
79585;SDS011;69054;50.866;4.636;2023-08-08T00:45:35;7.47;;;3.67;;
79585;SDS011;69054;50.866;4.636;2023-08-08T00:48:01;8.00;;;4.38;;
79585;SDS011;69054;50.866;4.636;2023-08-08T00:50:27;8.65;;;4.20;;
79585;SDS011;69054;50.866;4.636;2023-08-08T00:52:53;7.35;;;4.22;;
79585;SDS011;69054;50.866;4.636;2023-08-08T00:55:18;9.25;;;4.05;;
79585;SDS011;69054;50.866;4.636;2023-08-08T00:57:44;7.88;;;5.07;;
79585;SDS011;69054;50.866;4.636;2023-08-08T01:00:10;7.43;;;3.67;;
79585;SDS011;69054;50.866;4.636;2023-08-08T01:02:36;7.15;;;3.75;;
79585;SDS011;69054;50.866;4.636;2023-08-08T01:05:02;8.52;;;3.35;;
79585;SDS011;69054;50.866;4.636;2023-08-08T01:10:25;8.63;;;3.33;;
79585;SDS011;69054;50.866;4.636;2023-08-08T01:12:56;12.02;;;3.90;;
79585;SDS011;69054;50.866;4.636;2023-08-08T01:15:35;10.35;;;4.60;;
79585;SDS011;69054;50.866;4.636;2023-08-08T01:18:05;6.20;;;3.75;;
79585;SDS011;69054;50.866;4.636;2023-08-08T01:20:33;9.52;;;4.30;;
79585;SDS011;69054;50.866;4.636;2023-08-08T01:25:34;8.95;;;4.28;;
79585;SDS011;69054;50.866;4.636;2023-08-08T01:28:00;6.90;;;4.53;;
79585;SDS011;69054;50.866;4.636;2023-08-08T01:30:25;9.13;;;4.35;;
79585;SDS011;69054;50.866;4.636;2023-08-08T01:32:51;8.68;;;4.22;;
79585;SDS011;69054;50.866;4.636;2023-08-08T01:35:16;8.15;;;3.92;;
79585;SDS011;69054;50.866;4.636;2023-08-08T01:37:51;10.73;;;4.65;;
79585;SDS011;69054;50.866;4.636;2023-08-08T01:40:19;9.00;;;4.13;;
79585;SDS011;69054;50.866;4.636;2023-08-08T01:42:47;10.27;;;4.75;;
79585;SDS011;69054;50.866;4.636;2023-08-08T01:45:14;8.35;;;3.95;;
79585;SDS011;69054;50.866;4.636;2023-08-08T01:47:40;6.10;;;3.17;;
79585;SDS011;69054;50.866;4.636;2023-08-08T01:50:06;8.23;;;3.42;;
79585;SDS011;69054;50.866;4.636;2023-08-08T01:52:33;7.80;;;4.43;;
79585;SDS011;69054;50.866;4.636;2023-08-08T01:54:59;9.60;;;4.20;;
79585;SDS011;69054;50.866;4.636;2023-08-08T01:57:25;11.80;;;6.63;;
79585;SDS011;69054;50.866;4.636;2023-08-08T01:59:50;10.20;;;4.80;;
79585;SDS011;69054;50.866;4.636;2023-08-08T02:02:16;10.32;;;4.03;;
79585;SDS011;69054;50.866;4.636;2023-08-08T02:04:42;12.30;;;4.60;;
79585;SDS011;69054;50.866;4.636;2023-08-08T02:07:08;7.93;;;3.40;;
79585;SDS011;69054;50.866;4.636;2023-08-08T02:09:33;10.88;;;4.95;;
79585;SDS011;69054;50.866;4.636;2023-08-08T02:11:59;8.25;;;4.82;;
79585;SDS011;69054;50.866;4.636;2023-08-08T02:14:24;10.00;;;4.35;;
79585;SDS011;69054;50.866;4.636;2023-08-08T02:16:49;9.15;;;4.57;;
79585;SDS011;69054;50.866;4.636;2023-08-08T02:19:15;11.95;;;5.97;;
79585;SDS011;69054;50.866;4.636;2023-08-08T02:21:40;12.20;;;4.88;;
79585;SDS011;69054;50.866;4.636;2023-08-08T02:24:06;15.48;;;4.88;;
79585;SDS011;69054;50.866;4.636;2023-08-08T02:26:31;12.43;;;4.93;;
79585;SDS011;69054;50.866;4.636;2023-08-08T02:28:56;11.85;;;4.57;;
79585;SDS011;69054;50.866;4.636;2023-08-08T02:31:22;10.55;;;4.68;;
79585;SDS011;69054;50.866;4.636;2023-08-08T02:33:50;13.18;;;4.57;;
79585;SDS011;69054;50.866;4.636;2023-08-08T02:36:16;11.80;;;5.00;;
79585;SDS011;69054;50.866;4.636;2023-08-08T02:38:43;13.27;;;5.43;;
79585;SDS011;69054;50.866;4.636;2023-08-08T02:41:09;9.70;;;4.68;;
79585;SDS011;69054;50.866;4.636;2023-08-08T02:43:34;11.98;;;5.15;;
79585;SDS011;69054;50.866;4.636;2023-08-08T02:46:00;12.07;;;5.72;;
79585;SDS011;69054;50.866;4.636;2023-08-08T02:48:26;11.88;;;5.38;;
79585;SDS011;69054;50.866;4.636;2023-08-08T02:50:52;9.90;;;5.45;;
79585;SDS011;69054;50.866;4.636;2023-08-08T02:53:17;10.43;;;4.55;;
79585;SDS011;69054;50.866;4.636;2023-08-08T02:55:42;11.55;;;5.15;;
79585;SDS011;69054;50.866;4.636;2023-08-08T02:58:08;10.10;;;4.97;;
79585;SDS011;69054;50.866;4.636;2023-08-08T03:00:33;12.88;;;4.80;;
79585;SDS011;69054;50.866;4.636;2023-08-08T03:02:58;13.82;;;5.32;;
79585;SDS011;69054;50.866;4.636;2023-08-08T03:05:24;12.57;;;4.25;;
79585;SDS011;69054;50.866;4.636;2023-08-08T03:07:49;10.27;;;5.50;;
79585;SDS011;69054;50.866;4.636;2023-08-08T03:10:15;12.23;;;4.88;;
79585;SDS011;69054;50.866;4.636;2023-08-08T03:12:40;10.00;;;6.15;;
79585;SDS011;69054;50.866;4.636;2023-08-08T03:15:06;8.13;;;5.30;;
79585;SDS011;69054;50.866;4.636;2023-08-08T03:17:32;12.63;;;5.18;;
79585;SDS011;69054;50.866;4.636;2023-08-08T03:19:59;12.85;;;5.53;;
79585;SDS011;69054;50.866;4.636;2023-08-08T03:22:25;10.75;;;5.15;;
79585;SDS011;69054;50.866;4.636;2023-08-08T03:24:50;13.32;;;5.55;;
79585;SDS011;69054;50.866;4.636;2023-08-08T03:27:16;14.20;;;5.68;;
79585;SDS011;69054;50.866;4.636;2023-08-08T03:29:41;13.48;;;5.65;;
79585;SDS011;69054;50.866;4.636;2023-08-08T03:32:07;13.30;;;4.63;;
79585;SDS011;69054;50.866;4.636;2023-08-08T03:34:32;14.00;;;5.85;;
79585;SDS011;69054;50.866;4.636;2023-08-08T03:36:58;9.07;;;4.70;;
79585;SDS011;69054;50.866;4.636;2023-08-08T03:39:23;14.60;;;5.70;;
79585;SDS011;69054;50.866;4.636;2023-08-08T03:41:49;13.68;;;4.80;;
79585;SDS011;69054;50.866;4.636;2023-08-08T03:44:14;11.88;;;5.07;;
79585;SDS011;69054;50.866;4.636;2023-08-08T03:46:39;14.95;;;5.43;;
79585;SDS011;69054;50.866;4.636;2023-08-08T03:49:05;12.63;;;5.57;;
79585;SDS011;69054;50.866;4.636;2023-08-08T03:51:30;11.57;;;5.80;;
79585;SDS011;69054;50.866;4.636;2023-08-08T03:53:56;17.27;;;6.28;;
79585;SDS011;69054;50.866;4.636;2023-08-08T03:56:21;11.98;;;5.85;;
79585;SDS011;69054;50.866;4.636;2023-08-08T03:58:46;17.45;;;6.20;;
79585;SDS011;69054;50.866;4.636;2023-08-08T04:01:12;15.90;;;7.00;;
79585;SDS011;69054;50.866;4.636;2023-08-08T04:03:37;16.58;;;6.60;;
79585;SDS011;69054;50.866;4.636;2023-08-08T04:06:02;19.83;;;7.13;;
79585;SDS011;69054;50.866;4.636;2023-08-08T04:08:28;13.63;;;6.85;;
79585;SDS011;69054;50.866;4.636;2023-08-08T04:10:53;18.63;;;7.65;;
79585;SDS011;69054;50.866;4.636;2023-08-08T04:13:19;15.45;;;7.50;;
79585;SDS011;69054;50.866;4.636;2023-08-08T04:15:45;13.02;;;5.93;;
79585;SDS011;69054;50.866;4.636;2023-08-08T04:18:10;18.35;;;8.18;;
79585;SDS011;69054;50.866;4.636;2023-08-08T04:20:36;16.45;;;7.25;;
79585;SDS011;69054;50.866;4.636;2023-08-08T04:23:01;19.48;;;8.05;;
79585;SDS011;69054;50.866;4.636;2023-08-08T04:25:27;16.02;;;7.10;;
79585;SDS011;69054;50.866;4.636;2023-08-08T04:27:53;14.05;;;7.53;;
79585;SDS011;69054;50.866;4.636;2023-08-08T04:30:18;13.75;;;7.00;;
79585;SDS011;69054;50.866;4.636;2023-08-08T04:32:44;12.98;;;6.45;;
79585;SDS011;69054;50.866;4.636;2023-08-08T04:35:09;15.57;;;7.35;;
79585;SDS011;69054;50.866;4.636;2023-08-08T04:37:35;12.18;;;6.25;;
79585;SDS011;69054;50.866;4.636;2023-08-08T04:40:00;13.50;;;6.93;;
79585;SDS011;69054;50.866;4.636;2023-08-08T04:42:26;12.40;;;6.85;;
79585;SDS011;69054;50.866;4.636;2023-08-08T04:44:51;15.27;;;6.47;;
79585;SDS011;69054;50.866;4.636;2023-08-08T04:47:17;13.98;;;6.35;;
79585;SDS011;69054;50.866;4.636;2023-08-08T04:49:42;11.27;;;5.72;;
79585;SDS011;69054;50.866;4.636;2023-08-08T04:52:07;20.88;;;8.23;;
79585;SDS011;69054;50.866;4.636;2023-08-08T04:54:33;15.45;;;6.05;;
79585;SDS011;69054;50.866;4.636;2023-08-08T04:56:58;12.57;;;5.45;;
79585;SDS011;69054;50.866;4.636;2023-08-08T04:59:23;15.90;;;5.78;;
79585;SDS011;69054;50.866;4.636;2023-08-08T05:01:49;15.38;;;5.75;;
79585;SDS011;69054;50.866;4.636;2023-08-08T05:04:14;10.65;;;5.28;;
79585;SDS011;69054;50.866;4.636;2023-08-08T05:06:40;13.88;;;5.30;;
79585;SDS011;69054;50.866;4.636;2023-08-08T05:09:05;17.80;;;5.53;;
79585;SDS011;69054;50.866;4.636;2023-08-08T05:11:34;10.93;;;5.03;;
79585;SDS011;69054;50.866;4.636;2023-08-08T05:14:00;13.52;;;5.13;;
79585;SDS011;69054;50.866;4.636;2023-08-08T05:16:25;12.73;;;5.50;;
79585;SDS011;69054;50.866;4.636;2023-08-08T05:18:50;17.58;;;4.95;;
79585;SDS011;69054;50.866;4.636;2023-08-08T05:21:16;11.30;;;4.90;;
79585;SDS011;69054;50.866;4.636;2023-08-08T05:23:41;14.70;;;4.93;;
79585;SDS011;69054;50.866;4.636;2023-08-08T05:26:06;11.40;;;5.13;;
79585;SDS011;69054;50.866;4.636;2023-08-08T05:28:32;10.60;;;4.85;;
79585;SDS011;69054;50.866;4.636;2023-08-08T05:30:57;11.77;;;4.85;;
79585;SDS011;69054;50.866;4.636;2023-08-08T05:33:24;10.43;;;4.50;;
79585;SDS011;69054;50.866;4.636;2023-08-08T05:35:49;10.73;;;4.05;;
79585;SDS011;69054;50.866;4.636;2023-08-08T05:38:14;10.45;;;5.18;;
79585;SDS011;69054;50.866;4.636;2023-08-08T05:40:41;11.75;;;4.10;;
79585;SDS011;69054;50.866;4.636;2023-08-08T05:43:06;10.75;;;5.72;;
79585;SDS011;69054;50.866;4.636;2023-08-08T05:45:33;7.43;;;4.40;;
79585;SDS011;69054;50.866;4.636;2023-08-08T05:47:59;9.82;;;4.70;;
79585;SDS011;69054;50.866;4.636;2023-08-08T05:50:26;8.20;;;3.83;;
79585;SDS011;69054;50.866;4.636;2023-08-08T05:52:52;8.48;;;3.67;;
79585;SDS011;69054;50.866;4.636;2023-08-08T05:55:17;7.90;;;4.00;;
79585;SDS011;69054;50.866;4.636;2023-08-08T05:57:43;8.77;;;4.13;;
79585;SDS011;69054;50.866;4.636;2023-08-08T06:00:08;8.95;;;4.20;;
79585;SDS011;69054;50.866;4.636;2023-08-08T06:02:36;6.47;;;3.72;;
79585;SDS011;69054;50.866;4.636;2023-08-08T06:05:02;8.43;;;4.43;;
79585;SDS011;69054;50.866;4.636;2023-08-08T06:07:28;7.78;;;3.75;;
79585;SDS011;69054;50.866;4.636;2023-08-08T06:09:53;8.85;;;3.75;;
79585;SDS011;69054;50.866;4.636;2023-08-08T06:12:18;9.48;;;4.55;;
79585;SDS011;69054;50.866;4.636;2023-08-08T06:14:44;9.32;;;4.40;;
79585;SDS011;69054;50.866;4.636;2023-08-08T06:17:09;9.05;;;4.07;;
79585;SDS011;69054;50.866;4.636;2023-08-08T06:19:34;14.05;;;5.13;;
79585;SDS011;69054;50.866;4.636;2023-08-08T06:22:00;9.25;;;4.38;;
79585;SDS011;69054;50.866;4.636;2023-08-08T06:24:25;9.13;;;3.70;;
79585;SDS011;69054;50.866;4.636;2023-08-08T06:26:51;7.25;;;3.63;;
79585;SDS011;69054;50.866;4.636;2023-08-08T06:29:16;9.82;;;4.05;;
79585;SDS011;69054;50.866;4.636;2023-08-08T06:31:42;7.72;;;3.70;;
79585;SDS011;69054;50.866;4.636;2023-08-08T06:34:07;9.00;;;3.60;;
79585;SDS011;69054;50.866;4.636;2023-08-08T06:36:33;10.50;;;4.10;;
79585;SDS011;69054;50.866;4.636;2023-08-08T06:38:58;7.97;;;3.28;;
79585;SDS011;69054;50.866;4.636;2023-08-08T06:41:23;6.00;;;2.78;;
79585;SDS011;69054;50.866;4.636;2023-08-08T06:43:49;8.68;;;3.83;;
79585;SDS011;69054;50.866;4.636;2023-08-08T06:46:14;7.38;;;3.20;;
79585;SDS011;69054;50.866;4.636;2023-08-08T06:48:42;11.63;;;4.35;;
79585;SDS011;69054;50.866;4.636;2023-08-08T06:51:08;6.47;;;3.08;;
79585;SDS011;69054;50.866;4.636;2023-08-08T06:53:34;6.75;;;3.30;;
79585;SDS011;69054;50.866;4.636;2023-08-08T06:55:59;7.05;;;3.38;;
79585;SDS011;69054;50.866;4.636;2023-08-08T06:58:24;5.07;;;3.10;;
79585;SDS011;69054;50.866;4.636;2023-08-08T07:00:50;7.72;;;3.50;;
79585;SDS011;69054;50.866;4.636;2023-08-08T07:03:16;7.25;;;3.65;;
79585;SDS011;69054;50.866;4.636;2023-08-08T07:05:41;8.80;;;3.42;;
79585;SDS011;69054;50.866;4.636;2023-08-08T07:08:06;5.82;;;3.47;;
79585;SDS011;69054;50.866;4.636;2023-08-08T07:10:33;9.05;;;3.38;;
79585;SDS011;69054;50.866;4.636;2023-08-08T07:13:00;5.15;;;3.42;;
79585;SDS011;69054;50.866;4.636;2023-08-08T07:15:26;11.35;;;3.95;;
79585;SDS011;69054;50.866;4.636;2023-08-08T07:17:52;5.75;;;3.17;;
79585;SDS011;69054;50.866;4.636;2023-08-08T07:20:18;5.80;;;2.90;;
79585;SDS011;69054;50.866;4.636;2023-08-08T07:22:44;5.72;;;2.97;;
79585;SDS011;69054;50.866;4.636;2023-08-08T07:25:09;7.18;;;3.30;;
79585;SDS011;69054;50.866;4.636;2023-08-08T07:27:36;8.18;;;3.53;;
79585;SDS011;69054;50.866;4.636;2023-08-08T07:30:02;7.30;;;3.38;;
79585;SDS011;69054;50.866;4.636;2023-08-08T07:32:28;8.15;;;3.75;;
79585;SDS011;69054;50.866;4.636;2023-08-08T07:34:53;8.40;;;3.50;;
79585;SDS011;69054;50.866;4.636;2023-08-08T07:37:19;8.85;;;3.80;;
79585;SDS011;69054;50.866;4.636;2023-08-08T07:39:44;5.15;;;3.80;;
79585;SDS011;69054;50.866;4.636;2023-08-08T07:42:09;6.68;;;3.42;;
79585;SDS011;69054;50.866;4.636;2023-08-08T07:44:35;6.93;;;4.07;;
79585;SDS011;69054;50.866;4.636;2023-08-08T07:47:03;10.65;;;4.70;;
79585;SDS011;69054;50.866;4.636;2023-08-08T07:49:29;8.25;;;4.18;;
79585;SDS011;69054;50.866;4.636;2023-08-08T07:51:54;7.40;;;3.72;;
79585;SDS011;69054;50.866;4.636;2023-08-08T07:54:20;13.90;;;4.28;;
79585;SDS011;69054;50.866;4.636;2023-08-08T07:56:45;7.20;;;4.88;;
79585;SDS011;69054;50.866;4.636;2023-08-08T07:59:10;8.65;;;5.05;;
79585;SDS011;69054;50.866;4.636;2023-08-08T08:01:36;6.78;;;4.32;;
79585;SDS011;69054;50.866;4.636;2023-08-08T08:04:01;9.52;;;4.05;;
79585;SDS011;69054;50.866;4.636;2023-08-08T08:06:27;7.70;;;4.00;;
79585;SDS011;69054;50.866;4.636;2023-08-08T08:08:53;8.43;;;4.55;;
79585;SDS011;69054;50.866;4.636;2023-08-08T08:11:18;8.45;;;4.20;;
79585;SDS011;69054;50.866;4.636;2023-08-08T08:13:44;9.65;;;4.47;;
79585;SDS011;69054;50.866;4.636;2023-08-08T08:16:10;7.03;;;5.28;;
79585;SDS011;69054;50.866;4.636;2023-08-08T08:18:35;8.10;;;4.43;;
79585;SDS011;69054;50.866;4.636;2023-08-08T08:21:01;6.28;;;4.57;;
79585;SDS011;69054;50.866;4.636;2023-08-08T08:23:26;6.38;;;3.63;;
79585;SDS011;69054;50.866;4.636;2023-08-08T08:25:52;6.72;;;4.38;;
79585;SDS011;69054;50.866;4.636;2023-08-08T08:28:17;9.85;;;5.00;;
79585;SDS011;69054;50.866;4.636;2023-08-08T08:30:43;8.23;;;4.70;;
79585;SDS011;69054;50.866;4.636;2023-08-08T08:33:08;7.38;;;4.50;;
79585;SDS011;69054;50.866;4.636;2023-08-08T08:35:34;8.25;;;5.43;;
79585;SDS011;69054;50.866;4.636;2023-08-08T08:38:00;7.70;;;4.60;;
79585;SDS011;69054;50.866;4.636;2023-08-08T08:40:26;9.45;;;4.82;;
79585;SDS011;69054;50.866;4.636;2023-08-08T08:42:52;7.32;;;4.10;;
79585;SDS011;69054;50.866;4.636;2023-08-08T08:45:19;5.97;;;3.70;;
79585;SDS011;69054;50.866;4.636;2023-08-08T08:47:46;8.77;;;5.05;;
79585;SDS011;69054;50.866;4.636;2023-08-08T08:50:13;5.03;;;3.63;;
79585;SDS011;69054;50.866;4.636;2023-08-08T08:52:40;6.30;;;4.55;;
79585;SDS011;69054;50.866;4.636;2023-08-08T08:55:07;5.68;;;4.13;;
79585;SDS011;69054;50.866;4.636;2023-08-08T08:57:33;7.03;;;4.18;;
79585;SDS011;69054;50.866;4.636;2023-08-08T09:00:00;7.40;;;4.05;;
79585;SDS011;69054;50.866;4.636;2023-08-08T09:02:25;8.23;;;4.78;;
79585;SDS011;69054;50.866;4.636;2023-08-08T09:04:51;7.40;;;4.05;;
79585;SDS011;69054;50.866;4.636;2023-08-08T09:07:17;8.00;;;3.30;;
79585;SDS011;69054;50.866;4.636;2023-08-08T09:09:45;6.07;;;3.47;;
79585;SDS011;69054;50.866;4.636;2023-08-08T09:12:11;8.85;;;3.50;;
79585;SDS011;69054;50.866;4.636;2023-08-08T09:14:39;5.50;;;3.25;;
79585;SDS011;69054;50.866;4.636;2023-08-08T09:17:09;7.47;;;3.78;;
79585;SDS011;69054;50.866;4.636;2023-08-08T09:19:36;6.72;;;3.58;;
79585;SDS011;69054;50.866;4.636;2023-08-08T09:22:02;6.75;;;3.78;;
79585;SDS011;69054;50.866;4.636;2023-08-08T09:24:27;6.57;;;3.55;;
79585;SDS011;69054;50.866;4.636;2023-08-08T09:26:53;6.25;;;3.50;;
79585;SDS011;69054;50.866;4.636;2023-08-08T09:29:18;5.65;;;2.70;;
79585;SDS011;69054;50.866;4.636;2023-08-08T09:31:46;7.60;;;3.30;;
79585;SDS011;69054;50.866;4.636;2023-08-08T09:34:12;7.25;;;3.53;;
79585;SDS011;69054;50.866;4.636;2023-08-08T09:36:38;5.38;;;2.67;;
79585;SDS011;69054;50.866;4.636;2023-08-08T09:39:03;8.15;;;3.92;;
79585;SDS011;69054;50.866;4.636;2023-08-08T09:41:29;5.97;;;3.30;;
79585;SDS011;69054;50.866;4.636;2023-08-08T09:43:55;7.63;;;4.03;;
79585;SDS011;69054;50.866;4.636;2023-08-08T09:46:21;6.90;;;3.45;;
79585;SDS011;69054;50.866;4.636;2023-08-08T09:48:47;5.68;;;3.00;;
79585;SDS011;69054;50.866;4.636;2023-08-08T09:51:13;6.72;;;3.42;;
79585;SDS011;69054;50.866;4.636;2023-08-08T09:53:40;6.57;;;3.50;;
79585;SDS011;69054;50.866;4.636;2023-08-08T09:56:06;5.88;;;3.22;;
79585;SDS011;69054;50.866;4.636;2023-08-08T09:58:32;7.53;;;3.05;;
79585;SDS011;69054;50.866;4.636;2023-08-08T10:00:58;6.35;;;3.15;;
79585;SDS011;69054;50.866;4.636;2023-08-08T10:03:25;4.78;;;3.25;;
79585;SDS011;69054;50.866;4.636;2023-08-08T10:05:54;5.90;;;2.65;;
79585;SDS011;69054;50.866;4.636;2023-08-08T10:08:19;5.10;;;3.25;;
79585;SDS011;69054;50.866;4.636;2023-08-08T10:10:46;6.05;;;3.05;;
79585;SDS011;69054;50.866;4.636;2023-08-08T10:13:25;5.75;;;3.38;;
79585;SDS011;69054;50.866;4.636;2023-08-08T10:15:52;4.97;;;3.40;;
79585;SDS011;69054;50.866;4.636;2023-08-08T10:18:21;7.28;;;3.47;;
79585;SDS011;69054;50.866;4.636;2023-08-08T10:20:47;5.20;;;3.50;;
79585;SDS011;69054;50.866;4.636;2023-08-08T10:23:18;5.47;;;2.95;;
79585;SDS011;69054;50.866;4.636;2023-08-08T10:25:44;9.45;;;3.42;;
79585;SDS011;69054;50.866;4.636;2023-08-08T10:28:12;6.28;;;2.90;;
79585;SDS011;69054;50.866;4.636;2023-08-08T10:34:00;5.25;;;3.13;;
79585;SDS011;69054;50.866;4.636;2023-08-08T10:36:07;5.07;;;2.80;;
79585;SDS011;69054;50.866;4.636;2023-08-08T10:38:46;8.38;;;3.13;;
79585;SDS011;69054;50.866;4.636;2023-08-08T10:41:16;5.35;;;3.42;;
79585;SDS011;69054;50.866;4.636;2023-08-08T10:43:47;6.88;;;2.72;;
79585;SDS011;69054;50.866;4.636;2023-08-08T10:46:22;6.28;;;2.97;;
79585;SDS011;69054;50.866;4.636;2023-08-08T10:48:59;4.45;;;2.60;;
79585;SDS011;69054;50.866;4.636;2023-08-08T10:51:32;4.38;;;2.92;;
79585;SDS011;69054;50.866;4.636;2023-08-08T10:54:05;5.88;;;4.47;;
79585;SDS011;69054;50.866;4.636;2023-08-08T10:56:31;5.63;;;2.85;;
79585;SDS011;69054;50.866;4.636;2023-08-08T10:58:56;8.27;;;2.88;;
79585;SDS011;69054;50.866;4.636;2023-08-08T11:01:25;3.88;;;2.70;;
79585;SDS011;69054;50.866;4.636;2023-08-08T11:03:50;4.70;;;2.40;;
79585;SDS011;69054;50.866;4.636;2023-08-08T11:06:17;6.15;;;3.15;;
79585;SDS011;69054;50.866;4.636;2023-08-08T11:08:43;6.85;;;2.75;;
79585;SDS011;69054;50.866;4.636;2023-08-08T11:11:09;6.20;;;2.92;;
79585;SDS011;69054;50.866;4.636;2023-08-08T11:13:35;6.97;;;3.35;;
79585;SDS011;69054;50.866;4.636;2023-08-08T11:16:00;6.05;;;3.08;;
79585;SDS011;69054;50.866;4.636;2023-08-08T11:18:29;5.57;;;2.88;;
79585;SDS011;69054;50.866;4.636;2023-08-08T11:20:54;7.47;;;3.38;;
79585;SDS011;69054;50.866;4.636;2023-08-08T11:23:20;4.55;;;2.97;;
79585;SDS011;69054;50.866;4.636;2023-08-08T11:25:46;8.30;;;2.88;;
79585;SDS011;69054;50.866;4.636;2023-08-08T11:28:12;5.55;;;2.60;;
79585;SDS011;69054;50.866;4.636;2023-08-08T11:30:39;4.03;;;2.58;;
79585;SDS011;69054;50.866;4.636;2023-08-08T11:33:07;5.82;;;2.58;;
79585;SDS011;69054;50.866;4.636;2023-08-08T11:35:32;4.30;;;2.53;;
79585;SDS011;69054;50.866;4.636;2023-08-08T11:37:59;3.33;;;2.50;;
79585;SDS011;69054;50.866;4.636;2023-08-08T11:40:26;8.02;;;2.67;;
79585;SDS011;69054;50.866;4.636;2023-08-08T11:42:53;4.47;;;2.67;;
79585;SDS011;69054;50.866;4.636;2023-08-08T11:45:19;5.30;;;2.20;;
79585;SDS011;69054;50.866;4.636;2023-08-08T11:47:49;5.88;;;2.75;;
79585;SDS011;69054;50.866;4.636;2023-08-08T11:50:15;5.00;;;2.10;;
79585;SDS011;69054;50.866;4.636;2023-08-08T11:52:42;3.47;;;2.10;;
79585;SDS011;69054;50.866;4.636;2023-08-08T11:55:10;4.28;;;2.05;;
79585;SDS011;69054;50.866;4.636;2023-08-08T11:57:36;4.30;;;2.25;;
79585;SDS011;69054;50.866;4.636;2023-08-08T12:00:06;6.75;;;2.55;;
79585;SDS011;69054;50.866;4.636;2023-08-08T12:02:34;4.45;;;2.33;;
79585;SDS011;69054;50.866;4.636;2023-08-08T12:05:06;4.22;;;2.47;;
79585;SDS011;69054;50.866;4.636;2023-08-08T12:07:36;4.20;;;2.05;;
79585;SDS011;69054;50.866;4.636;2023-08-08T12:10:03;3.35;;;2.38;;
79585;SDS011;69054;50.866;4.636;2023-08-08T12:12:31;4.70;;;1.98;;
79585;SDS011;69054;50.866;4.636;2023-08-08T12:14:58;4.70;;;1.90;;
79585;SDS011;69054;50.866;4.636;2023-08-08T12:17:23;2.80;;;2.00;;
79585;SDS011;69054;50.866;4.636;2023-08-08T12:19:50;4.43;;;3.05;;
79585;SDS011;69054;50.866;4.636;2023-08-08T12:22:16;8.45;;;4.90;;
79585;SDS011;69054;50.866;4.636;2023-08-08T12:24:41;5.18;;;2.72;;
79585;SDS011;69054;50.866;4.636;2023-08-08T12:27:07;3.92;;;2.60;;
79585;SDS011;69054;50.866;4.636;2023-08-08T12:29:32;5.15;;;2.10;;
79585;SDS011;69054;50.866;4.636;2023-08-08T12:31:57;6.55;;;3.45;;
79585;SDS011;69054;50.866;4.636;2023-08-08T12:34:23;4.55;;;2.50;;
79585;SDS011;69054;50.866;4.636;2023-08-08T12:36:48;2.72;;;1.70;;
79585;SDS011;69054;50.866;4.636;2023-08-08T12:39:14;6.15;;;2.20;;
79585;SDS011;69054;50.866;4.636;2023-08-08T12:41:40;5.93;;;3.00;;
79585;SDS011;69054;50.866;4.636;2023-08-08T12:44:05;3.75;;;2.10;;
79585;SDS011;69054;50.866;4.636;2023-08-08T12:46:32;5.38;;;2.50;;
79585;SDS011;69054;50.866;4.636;2023-08-08T12:48:57;3.40;;;2.10;;
79585;SDS011;69054;50.866;4.636;2023-08-08T12:51:23;3.17;;;2.05;;
79585;SDS011;69054;50.866;4.636;2023-08-08T12:53:48;4.00;;;2.40;;
79585;SDS011;69054;50.866;4.636;2023-08-08T12:56:15;5.43;;;2.20;;
79585;SDS011;69054;50.866;4.636;2023-08-08T12:58:40;5.07;;;2.10;;
79585;SDS011;69054;50.866;4.636;2023-08-08T13:01:06;2.58;;;2.08;;
79585;SDS011;69054;50.866;4.636;2023-08-08T13:03:32;3.50;;;2.42;;
79585;SDS011;69054;50.866;4.636;2023-08-08T13:05:59;3.33;;;1.90;;
79585;SDS011;69054;50.866;4.636;2023-08-08T13:08:25;4.30;;;2.30;;
79585;SDS011;69054;50.866;4.636;2023-08-08T13:10:50;3.60;;;2.22;;
79585;SDS011;69054;50.866;4.636;2023-08-08T13:13:16;3.50;;;2.45;;
79585;SDS011;69054;50.866;4.636;2023-08-08T13:15:41;3.63;;;2.28;;
79585;SDS011;69054;50.866;4.636;2023-08-08T13:18:07;3.70;;;2.30;;
79585;SDS011;69054;50.866;4.636;2023-08-08T13:20:32;3.45;;;2.28;;
79585;SDS011;69054;50.866;4.636;2023-08-08T13:22:57;3.55;;;2.35;;
79585;SDS011;69054;50.866;4.636;2023-08-08T13:25:23;3.22;;;2.70;;
79585;SDS011;69054;50.866;4.636;2023-08-08T13:27:48;2.95;;;2.05;;
79585;SDS011;69054;50.866;4.636;2023-08-08T13:30:14;3.45;;;2.03;;
79585;SDS011;69054;50.866;4.636;2023-08-08T13:32:42;4.28;;;2.13;;
79585;SDS011;69054;50.866;4.636;2023-08-08T13:35:07;3.38;;;2.33;;
79585;SDS011;69054;50.866;4.636;2023-08-08T13:37:33;3.95;;;2.47;;
79585;SDS011;69054;50.866;4.636;2023-08-08T13:39:59;3.28;;;1.95;;
79585;SDS011;69054;50.866;4.636;2023-08-08T13:42:24;3.42;;;2.15;;
79585;SDS011;69054;50.866;4.636;2023-08-08T13:44:50;3.47;;;2.20;;
79585;SDS011;69054;50.866;4.636;2023-08-08T13:47:15;3.25;;;2.00;;
79585;SDS011;69054;50.866;4.636;2023-08-08T13:49:41;3.67;;;2.22;;
79585;SDS011;69054;50.866;4.636;2023-08-08T13:52:06;3.83;;;2.45;;
79585;SDS011;69054;50.866;4.636;2023-08-08T13:54:32;6.07;;;2.22;;
79585;SDS011;69054;50.866;4.636;2023-08-08T13:56:58;3.97;;;2.25;;
79585;SDS011;69054;50.866;4.636;2023-08-08T13:59:23;2.95;;;2.05;;
79585;SDS011;69054;50.866;4.636;2023-08-08T14:01:49;6.53;;;2.20;;
79585;SDS011;69054;50.866;4.636;2023-08-08T14:04:14;3.50;;;2.20;;
79585;SDS011;69054;50.866;4.636;2023-08-08T14:06:39;3.17;;;2.10;;
79585;SDS011;69054;50.866;4.636;2023-08-08T14:09:05;5.32;;;2.28;;
79585;SDS011;69054;50.866;4.636;2023-08-08T14:11:31;3.58;;;2.05;;
79585;SDS011;69054;50.866;4.636;2023-08-08T14:13:56;4.53;;;2.30;;
79585;SDS011;69054;50.866;4.636;2023-08-08T14:16:22;3.40;;;1.98;;
79585;SDS011;69054;50.866;4.636;2023-08-08T14:18:47;4.03;;;2.10;;
79585;SDS011;69054;50.866;4.636;2023-08-08T14:21:15;4.55;;;2.30;;
79585;SDS011;69054;50.866;4.636;2023-08-08T14:23:40;5.00;;;2.40;;
79585;SDS011;69054;50.866;4.636;2023-08-08T14:26:06;3.65;;;1.98;;
79585;SDS011;69054;50.866;4.636;2023-08-08T14:28:31;3.70;;;1.85;;
79585;SDS011;69054;50.866;4.636;2023-08-08T14:30:57;5.05;;;2.13;;
79585;SDS011;69054;50.866;4.636;2023-08-08T14:33:22;3.15;;;2.10;;
79585;SDS011;69054;50.866;4.636;2023-08-08T14:35:48;4.50;;;2.33;;
79585;SDS011;69054;50.866;4.636;2023-08-08T14:38:13;4.22;;;2.30;;
79585;SDS011;69054;50.866;4.636;2023-08-08T14:40:38;3.58;;;2.13;;
79585;SDS011;69054;50.866;4.636;2023-08-08T14:43:04;3.95;;;2.40;;
79585;SDS011;69054;50.866;4.636;2023-08-08T14:45:35;4.00;;;2.13;;